Ankeny, Iowa
Current Conditions -  °F | °C
As of 8:15 AM on Sunday 25 Jan 2015 (Local Time) from KIKV Reporting Station
Light Snow Light Snow  
Wind Chill: -5°   Ceiling: 600
Heat Index:   Visibility: 1.2mi
Dew Point:   Wind: 17mph
Humidity: 100%   Direction: 20°NNE
Pressure: 29.73"   Gusts: NA
Location:  41.73°N, 93.6°W
Report Text: KIKV 251415Z AUTO 02015KT 1 1/4SM -SN OVC006 01/01 A2973 RMK AO2
Loading
Personal Weather Stations






























Interactive Weather Map New forecast layout! Learn more

10-Day Weather Forecast

Advertisements
Track Severe Weather on mobile